Forside
METAR-TAF:

METAR-TAF

Lufthavne :

Madison, Wisconsin, USA

Breddekreds: 43-08-26N, længdekreds: 089-20-43W, højde: 262 m

Aktuelle vejr

Denne rapport blev lavet for 1 time og 16 minutter siden, kl. 01:53 UTC
Vind stille
Temperatur 22°C
Fugtighed 83%
Tryk 1012 hPa
Sigt: 16.1 km
Overskyet i en højde af 25000 ft

METAR: KMSN 250153Z 00000KT 10SM OVC250 22/19 A2987 RMK AO2 SLP113 T02170189

Tid: 22:09 (03:09 UTC)

Vejrudsigter

Denne rapport blev lavet for 29 minutter siden, kl. 02:40 UTC
Foreløbig gælder fra 25 på 03 UTC til 25 på 24 UTC
Vind kt fra nord
Sigt: 10 km
Overskyet i en højde af 25000 ft
Fra 25 på 1000 UTC
Vind 3 kt fra sydsydøst
Sigt: 6.4 km
Spredte skyer i en højde af 1000 ft
dis
Fra 25 på 1300 UTC
Vind 6 kt fra syd
Sigt: 10 km
Nogle få skyer i en højde af 1500 ft
Fra 25 på 1800 UTC
Vind 9 kt fra sydsydvest
Sigt: 10 km
Brudte skyer i en højde af 10000 ft

TAF: KMSN 250240Z 2503/2524 00000KT P6SM OVC250 FM251000 16003KT 4SM BR SCT010 FM251300 18006KT P6SM FEW015 FM251800 20009KT P6SM BKN100

Vejrobservationer og prognoser fra mere end 4000 lufthavne (METAR og TAF).

De gule og røde prikker repræsenterer de meteorologiske stationer.

Flyt musen over at se navnet på stationen.

Så klik over at se vejr observationer og prognoser.

At skifte det kort: Klik på de grønne knapper med et sort kors for at zoome ind; på den grønne knap med en bindestreg for at zoome ud; eller på de grønne pile for tilstødende kort.


METAR-TAF: